Clay Center, Kansas
Current Conditions -  °F | °C
As of 2:41 AM on Friday 24 Oct 2014 (Local Time) from KMHK Reporting Station
Moderate Fog Moderate Fog  
Wind Chill: 53°   Ceiling: 800
Heat Index: 53°   Visibility: 0.25mi
Dew Point: 53°   Wind: 0mph
Humidity: 100%   Direction: NA
Pressure: 30.05"   Gusts: NA
Location:  39.38°N, 97.12°W
Report Text: KMHK 240741Z AUTO 00000KT 1/4SM FG VV008 12/12 A3005 RMK AO2 T01170117 TSNO
Loading
Personal Weather Stations






























Interactive Weather Map
Tropical Storm Tracking
New forecast layout! Learn more

10-Day Weather Forecast

Advertisements
Track Severe Weather on mobile